createdAt,value
2023-01-05T00:01:50.608Z,7.13
2023-01-05T00:04:19.787Z,5.60
2023-01-05T00:06:48.556Z,6.50
2023-01-05T00:09:19.424Z,6.37
2023-01-05T00:12:05.132Z,7.50
2023-01-05T00:14:52.735Z,6.03
2023-01-05T00:17:42.373Z,5.77
2023-01-05T00:20:33.364Z,6.43
2023-01-05T00:23:02.392Z,7.33
2023-01-05T00:25:33.948Z,6.97
2023-01-05T00:28:02.651Z,5.80
2023-01-05T00:30:37.351Z,6.13
2023-01-05T00:33:09.518Z,5.93
2023-01-05T00:35:39.079Z,6.07
2023-01-05T00:38:08.574Z,6.20
2023-01-05T00:40:37.589Z,7.33
2023-01-05T00:43:06.210Z,6.60
2023-01-05T00:45:34.760Z,6.30
2023-01-05T00:48:03.208Z,6.13
2023-01-05T00:50:32.974Z,6.63
2023-01-05T00:53:03.025Z,6.67
2023-01-05T00:55:33.753Z,7.20
2023-01-05T00:58:02.278Z,5.47
2023-01-05T01:00:30.804Z,6.80
2023-01-05T01:03:02.062Z,5.83
2023-01-05T01:05:32.294Z,5.97
2023-01-05T01:08:00.674Z,6.10
2023-01-05T01:10:29.220Z,5.20
2023-01-05T01:12:58.659Z,6.80
2023-01-05T01:15:27.044Z,6.53
2023-01-05T01:17:55.499Z,5.60
2023-01-05T01:20:24.040Z,5.53
2023-01-05T01:22:53.848Z,6.63
2023-01-05T01:25:22.199Z,6.60
2023-01-05T01:27:50.606Z,5.30
2023-01-05T01:30:20.171Z,6.30
2023-01-05T01:32:48.655Z,6.77
2023-01-05T01:35:17.863Z,6.43
2023-01-05T01:37:46.284Z,5.67
2023-01-05T01:40:16.180Z,6.43
2023-01-05T01:42:44.746Z,7.10
2023-01-05T01:45:21.148Z,7.00
2023-01-05T01:47:56.437Z,8.30
2023-01-05T01:50:28.821Z,5.80
2023-01-05T01:53:02.899Z,5.83
2023-01-05T01:55:34.046Z,7.53
2023-01-05T01:58:04.681Z,7.03
2023-01-05T02:00:33.256Z,6.97
2023-01-05T02:03:01.810Z,5.97
2023-01-05T02:05:34.197Z,7.30
2023-01-05T02:08:02.671Z,7.87
2023-01-05T02:10:50.670Z,6.53
2023-01-05T02:13:33.353Z,7.27
2023-01-05T02:16:13.312Z,7.53
2023-01-05T02:18:56.021Z,7.10
2023-01-05T02:21:38.184Z,7.80
2023-01-05T02:24:42.537Z,6.60
2023-01-05T02:27:28.714Z,8.07
2023-01-05T02:30:45.524Z,6.00
2023-01-05T02:33:26.573Z,5.83
2023-01-05T02:36:00.233Z,7.30
2023-01-05T02:38:39.020Z,6.97
2023-01-05T02:41:15.348Z,7.63
2023-01-05T02:43:45.979Z,7.53
2023-01-05T02:46:14.918Z,7.10
2023-01-05T02:48:47.269Z,6.53
2023-01-05T02:51:21.102Z,7.77
2023-01-05T02:53:55.580Z,6.60
2023-01-05T02:56:29.621Z,6.90
2023-01-05T02:59:02.551Z,6.80
2023-01-05T03:01:33.998Z,8.07
2023-01-05T03:04:09.656Z,7.13
2023-01-05T03:06:47.183Z,6.87
2023-01-05T03:09:20.600Z,7.30
2023-01-05T03:12:13.884Z,7.37
2023-01-05T03:14:47.528Z,6.03
2023-01-05T03:17:23.170Z,8.23
2023-01-05T03:19:54.029Z,8.37
2023-01-05T03:22:44.674Z,6.57
2023-01-05T03:25:32.978Z,5.70
2023-01-05T03:28:22.743Z,7.73
2023-01-05T03:31:17.840Z,6.83
2023-01-05T03:34:09.851Z,6.87
2023-01-05T03:36:49.469Z,6.53
2023-01-05T03:39:21.507Z,7.00
2023-01-05T03:41:50.269Z,6.00
2023-01-05T03:44:20.262Z,6.40
2023-01-05T03:46:49.193Z,8.03
2023-01-05T03:49:18.189Z,6.17
2023-01-05T03:51:48.473Z,6.53
2023-01-05T03:54:17.036Z,7.17
2023-01-05T03:56:48.046Z,6.33
2023-01-05T03:59:16.673Z,6.77
2023-01-05T04:01:45.781Z,6.80
2023-01-05T04:04:16.421Z,6.63
2023-01-05T04:06:45.760Z,6.30
2023-01-05T04:09:17.987Z,6.07
2023-01-05T04:11:47.316Z,6.57
2023-01-05T04:14:15.747Z,7.27
2023-01-05T04:16:44.191Z,7.70
2023-01-05T04:19:20.764Z,6.37
2023-01-05T04:21:51.465Z,5.40
2023-01-05T04:24:22.266Z,6.23
2023-01-05T04:26:50.747Z,6.73
2023-01-05T04:29:21.227Z,5.73
2023-01-05T04:31:51.937Z,7.17
2023-01-05T04:34:23.668Z,6.40
2023-01-05T04:36:55.485Z,6.30
2023-01-05T04:39:25.845Z,6.50
2023-01-05T04:41:55.687Z,6.13
2023-01-05T04:44:24.368Z,6.27
2023-01-05T04:46:52.919Z,6.47
2023-01-05T04:49:21.959Z,7.13
2023-01-05T04:51:52.443Z,5.60
2023-01-05T04:54:23.735Z,5.30
2023-01-05T04:56:54.198Z,6.97
2023-01-05T04:59:22.741Z,7.47
2023-01-05T05:01:53.536Z,7.10
2023-01-05T05:04:22.583Z,6.03
2023-01-05T05:06:52.187Z,7.13
2023-01-05T05:09:23.495Z,6.70
2023-01-05T05:11:53.491Z,6.57
2023-01-05T05:14:24.357Z,7.53
2023-01-05T05:16:53.163Z,6.80
2023-01-05T05:19:21.726Z,6.13
2023-01-05T05:21:50.423Z,6.63
2023-01-05T05:24:19.337Z,7.03
2023-01-05T05:26:51.074Z,5.90
2023-01-05T05:29:20.891Z,7.13
2023-01-05T05:31:49.346Z,7.80
2023-01-05T05:34:18.294Z,6.77
2023-01-05T05:36:46.723Z,6.87
2023-01-05T05:39:15.997Z,8.30
2023-01-05T05:41:44.726Z,6.63
2023-01-05T05:44:13.290Z,7.30
2023-01-05T05:46:43.115Z,8.00
2023-01-05T05:49:11.713Z,6.53
2023-01-05T05:51:40.467Z,7.90
2023-01-05T05:54:08.892Z,6.57
2023-01-05T05:56:37.475Z,6.93
2023-01-05T05:59:05.902Z,6.73
2023-01-05T06:01:34.625Z,5.87
2023-01-05T06:04:04.877Z,6.53
2023-01-05T06:06:33.272Z,8.53
2023-01-05T06:09:01.771Z,7.23
2023-01-05T06:11:30.306Z,6.73
2023-01-05T06:13:58.766Z,7.27
2023-01-05T06:16:27.286Z,7.30
2023-01-05T06:18:55.930Z,7.27
2023-01-05T06:21:25.738Z,7.10
2023-01-05T06:23:54.223Z,7.37
2023-01-05T06:26:22.754Z,7.80
2023-01-05T06:28:51.523Z,6.93
2023-01-05T06:31:20.152Z,7.30
2023-01-05T06:33:48.752Z,6.43
2023-01-05T06:36:17.175Z,8.10
2023-01-05T06:38:47.305Z,7.47
2023-01-05T06:41:15.788Z,7.87
2023-01-05T06:43:44.378Z,7.03
2023-01-05T06:46:13.042Z,8.13
2023-01-05T06:48:41.460Z,7.07
2023-01-05T06:51:09.854Z,7.20
2023-01-05T06:53:38.278Z,8.90
2023-01-05T06:56:08.914Z,8.83
2023-01-05T06:58:37.679Z,6.90
2023-01-05T07:01:06.601Z,6.70
2023-01-05T07:03:35.858Z,7.73
2023-01-05T07:06:07.678Z,7.27
2023-01-05T07:08:39.738Z,6.93
2023-01-05T07:11:09.796Z,6.97
2023-01-05T07:13:38.231Z,7.53
2023-01-05T07:16:07.403Z,8.33
2023-01-05T07:18:36.039Z,8.23
2023-01-05T07:21:04.493Z,6.40
2023-01-05T07:23:33.138Z,8.37
2023-01-05T07:26:02.183Z,7.07
2023-01-05T07:28:31.943Z,7.33
2023-01-05T07:31:00.637Z,8.27
2023-01-05T07:33:30.213Z,8.90
2023-01-05T07:36:02.463Z,8.20
2023-01-05T07:38:30.958Z,8.53
2023-01-05T07:41:01.108Z,8.37
2023-01-05T07:43:31.303Z,8.03
2023-01-05T07:46:02.927Z,9.00
2023-01-05T07:48:31.739Z,8.80
2023-01-05T07:51:05.681Z,8.20
2023-01-05T07:53:44.025Z,9.07
2023-01-05T07:56:14.169Z,8.93
2023-01-05T07:58:44.206Z,8.07
2023-01-05T08:01:14.522Z,9.17
2023-01-05T08:03:43.153Z,9.23
2023-01-05T08:06:13.200Z,8.80
2023-01-05T08:08:41.945Z,7.70
2023-01-05T08:11:12.795Z,8.13
2023-01-05T08:13:58.956Z,9.23
2023-01-05T08:16:30.115Z,7.83
2023-01-05T08:18:59.017Z,8.00
2023-01-05T08:21:28.130Z,7.93
2023-01-05T08:23:59.387Z,8.80
2023-01-05T08:26:27.932Z,8.83
2023-01-05T08:28:56.365Z,8.57
2023-01-05T08:31:27.249Z,8.27
2023-01-05T08:34:00.393Z,8.30
2023-01-05T08:36:29.105Z,7.67
2023-01-05T08:38:57.599Z,8.17
2023-01-05T08:41:28.523Z,8.20
2023-01-05T08:43:58.844Z,9.03
2023-01-05T08:46:32.818Z,9.43
2023-01-05T08:49:05.286Z,9.33
2023-01-05T08:51:34.285Z,8.33
2023-01-05T08:54:02.870Z,9.07
2023-01-05T08:56:37.989Z,9.07
2023-01-05T08:59:07.525Z,9.60
2023-01-05T09:01:37.016Z,11.33
2023-01-05T09:04:07.117Z,7.20
2023-01-05T09:06:35.692Z,8.90
2023-01-05T09:09:04.413Z,9.43
2023-01-05T09:11:34.900Z,8.30
2023-01-05T09:14:04.149Z,7.57
2023-01-05T09:17:05.316Z,9.17
2023-01-05T09:19:25.807Z,9.53
2023-01-05T09:21:54.321Z,9.93
2023-01-05T09:24:23.331Z,7.90
2023-01-05T09:26:51.795Z,8.83
2023-01-05T09:29:20.543Z,8.17
2023-01-05T09:31:49.204Z,8.70
2023-01-05T09:34:19.151Z,7.37
2023-01-05T09:36:49.147Z,9.53
2023-01-05T09:39:17.748Z,9.40
2023-01-05T09:41:48.688Z,9.07
2023-01-05T09:44:29.683Z,8.80
2023-01-05T09:47:02.702Z,9.17
2023-01-05T09:49:33.013Z,7.80
2023-01-05T09:52:09.380Z,9.60
2023-01-05T09:54:39.160Z,10.57
2023-01-05T09:57:17.937Z,8.83
2023-01-05T09:59:49.396Z,8.90
2023-01-05T10:02:26.585Z,9.07
2023-01-05T10:04:56.748Z,8.67
2023-01-05T10:07:35.972Z,8.43
2023-01-05T10:10:30.224Z,8.73
2023-01-05T10:13:03.274Z,8.30
2023-01-05T10:15:37.806Z,9.40
2023-01-05T10:18:19.264Z,7.23
2023-01-05T10:21:02.950Z,8.20
2023-01-05T10:23:48.177Z,8.53
2023-01-05T10:26:26.098Z,8.77
2023-01-05T10:29:01.141Z,9.13
2023-01-05T10:31:42.163Z,8.43
2023-01-05T10:34:21.545Z,7.07
2023-01-05T10:37:10.086Z,8.60
2023-01-05T10:40:01.940Z,9.27
2023-01-05T10:42:46.689Z,8.17
2023-01-05T10:45:17.003Z,8.23
2023-01-05T10:47:47.819Z,8.33
2023-01-05T10:50:38.639Z,8.67
2023-01-05T10:53:12.217Z,7.97
2023-01-05T10:55:51.440Z,8.03
2023-01-05T10:58:25.829Z,8.23
2023-01-05T11:00:58.225Z,10.17
2023-01-05T11:04:14.282Z,8.40
2023-01-05T11:06:26.543Z,7.87
2023-01-05T11:08:55.520Z,8.70
2023-01-05T11:11:27.396Z,8.37
2023-01-05T11:13:58.904Z,8.80
2023-01-05T11:16:29.557Z,9.13
2023-01-05T11:19:01.785Z,8.80
2023-01-05T11:21:44.564Z,8.47
2023-01-05T11:24:30.226Z,8.17
2023-01-05T11:27:01.854Z,9.37
2023-01-05T11:29:31.119Z,8.50
2023-01-05T11:32:02.172Z,9.13
2023-01-05T11:34:39.661Z,8.40
2023-01-05T11:37:19.083Z,8.03
2023-01-05T11:39:53.349Z,8.57
2023-01-05T11:42:31.687Z,8.27
2023-01-05T11:45:03.009Z,8.70
2023-01-05T11:47:43.147Z,10.03
2023-01-05T11:50:21.658Z,9.83
2023-01-05T11:52:54.227Z,8.27
2023-01-05T11:55:30.480Z,8.63
2023-01-05T11:58:26.765Z,8.63
2023-01-05T12:01:23.246Z,9.20
2023-01-05T12:04:04.762Z,9.63
2023-01-05T12:07:04.041Z,9.37
2023-01-05T12:09:36.071Z,9.90
2023-01-05T12:12:24.846Z,8.63
2023-01-05T12:15:08.986Z,8.77
2023-01-05T12:17:50.621Z,8.40
2023-01-05T12:20:49.625Z,10.30
2023-01-05T12:23:51.985Z,11.03
2023-01-05T12:26:26.459Z,9.27
2023-01-05T12:34:00.143Z,9.60
2023-01-05T12:35:33.979Z,9.87
2023-01-05T12:38:15.625Z,8.97
2023-01-05T12:41:04.350Z,10.43
2023-01-05T12:43:50.037Z,10.27
2023-01-05T12:46:33.194Z,10.10
2023-01-05T12:49:07.288Z,9.47
2023-01-05T12:51:42.863Z,8.70
2023-01-05T12:54:24.248Z,10.67
2023-01-05T12:56:57.090Z,10.53
2023-01-05T12:59:33.998Z,9.77
2023-01-05T13:02:10.200Z,10.73
2023-01-05T13:04:47.780Z,8.77
2023-01-05T13:07:24.518Z,10.13
2023-01-05T13:10:03.088Z,10.53
2023-01-05T13:12:33.869Z,9.07
2023-01-05T13:15:17.690Z,10.73
2023-01-05T13:17:49.827Z,11.03
2023-01-05T13:20:28.447Z,9.87
2023-01-05T13:23:04.541Z,9.50
2023-01-05T13:25:46.317Z,8.80
2023-01-05T13:28:22.900Z,9.13
2023-01-05T13:31:32.807Z,9.20
2023-01-05T13:34:22.008Z,9.63
2023-01-05T13:37:08.328Z,9.87
2023-01-05T13:39:49.271Z,9.77
2023-01-05T13:42:53.064Z,10.83
2023-01-05T13:45:41.653Z,10.23
2023-01-05T13:48:43.986Z,9.93
2023-01-05T13:51:51.699Z,10.60
2023-01-05T13:54:37.835Z,10.73
2023-01-05T13:57:17.223Z,10.10
2023-01-05T13:59:56.223Z,10.57
2023-01-05T14:02:34.545Z,12.00
2023-01-05T14:05:05.073Z,11.97
2023-01-05T14:07:34.614Z,10.77
2023-01-05T14:10:07.183Z,10.83
2023-01-05T14:12:48.089Z,10.97
2023-01-05T14:15:42.183Z,10.20
2023-01-05T14:18:12.293Z,10.40
2023-01-05T14:20:49.164Z,10.50
2023-01-05T14:23:55.614Z,9.90
2023-01-05T14:26:57.595Z,10.20
2023-01-05T14:30:10.735Z,9.33
2023-01-05T14:32:42.521Z,10.00
2023-01-05T14:35:29.652Z,10.70
2023-01-05T14:38:02.822Z,11.20
2023-01-05T14:40:38.642Z,10.83
2023-01-05T14:43:22.359Z,9.63
2023-01-05T14:46:10.714Z,9.60
2023-01-05T14:48:42.610Z,10.83
2023-01-05T14:51:20.986Z,10.47
2023-01-05T14:53:51.691Z,9.50
2023-01-05T14:56:24.958Z,10.83
2023-01-05T14:59:20.144Z,10.40
2023-01-05T15:01:53.031Z,8.77
2023-01-05T15:04:29.141Z,8.67
2023-01-05T15:07:19.803Z,9.40
2023-01-05T15:10:11.626Z,9.73
2023-01-05T15:13:05.351Z,9.37
2023-01-05T15:15:44.805Z,9.70
2023-01-05T15:18:48.091Z,8.10
2023-01-05T15:21:45.573Z,8.60
2023-01-05T15:25:04.711Z,9.43
2023-01-05T15:28:13.681Z,9.93
2023-01-05T15:31:21.086Z,9.93
2023-01-05T15:33:56.670Z,9.20
2023-01-05T15:36:30.723Z,8.60
2023-01-05T15:38:59.413Z,8.70
2023-01-05T15:41:29.930Z,8.93
2023-01-05T15:43:58.863Z,8.90
2023-01-05T15:46:34.026Z,8.73
2023-01-05T15:49:02.908Z,9.30
2023-01-05T15:51:34.773Z,7.90
2023-01-05T15:54:05.622Z,8.97
2023-01-05T15:56:39.785Z,8.10
2023-01-05T15:59:23.165Z,9.67
2023-01-05T16:01:51.928Z,7.40
2023-01-05T16:04:20.574Z,8.37
2023-01-05T16:07:00.714Z,8.90
2023-01-05T16:09:34.117Z,9.53
2023-01-05T16:12:08.507Z,8.83
2023-01-05T16:14:41.143Z,8.50
2023-01-05T16:17:17.342Z,8.57
2023-01-05T16:19:49.164Z,7.63
2023-01-05T16:22:25.287Z,8.70
2023-01-05T16:25:00.918Z,7.80
2023-01-05T16:27:30.717Z,9.30
2023-01-05T16:30:15.861Z,7.73
2023-01-05T16:32:44.856Z,7.87
2023-01-05T16:35:25.458Z,7.00
2023-01-05T16:38:31.722Z,7.70
2023-01-05T16:41:08.552Z,6.57
2023-01-05T16:43:42.292Z,7.47
2023-01-05T16:46:33.806Z,6.20
2023-01-05T16:49:08.397Z,7.00
2023-01-05T16:51:42.958Z,8.13
2023-01-05T16:54:22.117Z,8.03
2023-01-05T16:56:58.119Z,7.87
2023-01-05T16:59:50.101Z,7.83
2023-01-05T17:02:47.457Z,8.63
2023-01-05T17:05:19.190Z,8.20
2023-01-05T17:07:50.443Z,8.57
2023-01-05T17:10:23.692Z,8.57
2023-01-05T17:13:00.446Z,7.93
2023-01-05T17:15:33.644Z,7.03
2023-01-05T17:18:03.031Z,7.97
2023-01-05T17:20:36.547Z,6.90
2023-01-05T17:23:07.040Z,7.13
2023-01-05T17:25:37.625Z,8.00
2023-01-05T17:28:06.661Z,7.80
2023-01-05T17:30:35.802Z,7.53
2023-01-05T17:33:06.138Z,6.90
2023-01-05T17:35:34.760Z,7.63
2023-01-05T17:38:03.974Z,6.77
2023-01-05T17:40:33.200Z,7.63
2023-01-05T17:43:03.442Z,7.57
2023-01-05T17:45:32.643Z,6.73
2023-01-05T17:48:01.512Z,6.70
2023-01-05T17:53:02.184Z,8.93
2023-01-05T17:55:31.616Z,9.33
2023-01-05T17:58:01.023Z,13.20
2023-01-05T18:00:34.753Z,15.60
2023-01-05T18:03:03.508Z,17.07
2023-01-05T18:05:32.210Z,18.47
2023-01-05T18:08:00.886Z,21.07
2023-01-05T18:10:29.848Z,21.50
2023-01-05T18:12:58.823Z,22.93
2023-01-05T18:18:03.538Z,21.80
2023-01-05T18:20:32.163Z,21.90
2023-01-05T18:23:00.745Z,21.23
2023-01-05T18:25:29.730Z,20.10
2023-01-05T18:27:58.413Z,21.10
2023-01-05T18:30:27.167Z,20.57
2023-01-05T18:32:56.433Z,20.57
2023-01-05T18:35:26.387Z,19.60
2023-01-05T18:40:29.247Z,21.70
2023-01-05T18:42:58.058Z,21.90
2023-01-05T18:45:38.363Z,21.70
2023-01-05T18:48:08.164Z,21.63
2023-01-05T18:50:44.780Z,21.67
2023-01-05T18:53:14.573Z,21.67
2023-01-05T18:55:44.020Z,21.50
2023-01-05T18:58:13.945Z,23.93
2023-01-05T19:00:43.674Z,23.63
2023-01-05T19:03:13.052Z,23.27
2023-01-05T19:05:44.590Z,23.60
2023-01-05T19:08:14.814Z,23.67
2023-01-05T19:10:43.709Z,25.17
2023-01-05T19:13:12.364Z,24.97
2023-01-05T19:15:41.191Z,25.27
2023-01-05T19:18:10.165Z,23.40
2023-01-05T19:20:39.884Z,24.43
2023-01-05T19:23:10.163Z,23.53
2023-01-05T19:25:40.124Z,23.07
2023-01-05T19:28:10.151Z,22.73
2023-01-05T19:30:39.001Z,21.13
2023-01-05T19:33:07.881Z,21.43
2023-01-05T19:35:36.867Z,20.63
2023-01-05T19:38:05.706Z,22.17
2023-01-05T19:40:35.860Z,20.40
2023-01-05T19:43:05.191Z,20.17
2023-01-05T19:45:35.571Z,20.43
2023-01-05T19:48:04.298Z,20.80
2023-01-05T19:50:32.813Z,20.87
2023-01-05T19:53:01.967Z,21.17
2023-01-05T19:55:31.113Z,21.90
2023-01-05T19:58:01.417Z,21.30
2023-01-05T20:00:29.821Z,23.23
2023-01-05T20:02:58.907Z,21.77
2023-01-05T20:05:28.415Z,21.20
2023-01-05T20:07:56.893Z,22.73
2023-01-05T20:10:25.449Z,21.60
2023-01-05T20:12:54.219Z,23.00
2023-01-05T20:15:24.452Z,22.60
2023-01-05T20:17:53.025Z,22.13
2023-01-05T20:20:21.814Z,21.13
2023-01-05T20:22:58.186Z,20.23
2023-01-05T20:25:27.239Z,20.53
2023-01-05T20:27:55.776Z,20.90
2023-01-05T20:30:25.952Z,19.93
2023-01-05T20:32:54.768Z,19.43
2023-01-05T20:35:23.521Z,18.57
2023-01-05T20:37:52.350Z,19.30
2023-01-05T20:40:21.318Z,18.80
2023-01-05T20:42:50.052Z,17.63
2023-01-05T20:45:18.904Z,18.50
2023-01-05T20:47:49.016Z,19.07
2023-01-05T20:50:17.697Z,18.67
2023-01-05T20:52:46.542Z,18.77
2023-01-05T20:55:17.845Z,18.83
2023-01-05T20:57:47.532Z,18.87
2023-01-05T21:00:17.013Z,17.97
2023-01-05T21:02:47.698Z,17.40
2023-01-05T21:05:17.857Z,17.50
2023-01-05T21:07:46.777Z,10.43
2023-01-05T21:10:15.959Z,5.60
2023-01-05T21:12:44.723Z,4.60
2023-01-05T21:15:13.396Z,4.17
2023-01-05T21:17:41.999Z,3.77
2023-01-05T21:20:10.764Z,3.43
2023-01-05T21:22:40.984Z,3.70
2023-01-05T21:25:11.653Z,4.50
2023-01-05T21:27:44.175Z,4.50
2023-01-05T21:30:14.574Z,5.13
2023-01-05T21:32:45.873Z,5.30
2023-01-05T21:35:14.663Z,6.67
2023-01-05T21:37:44.721Z,6.87
2023-01-05T21:40:13.978Z,8.07
2023-01-05T21:42:44.694Z,8.50
2023-01-05T21:45:14.301Z,10.37
2023-01-05T21:47:43.230Z,10.60
2023-01-05T21:50:34.447Z,10.57
2023-01-05T21:53:23.434Z,12.13
2023-01-05T21:56:09.688Z,14.63
2023-01-05T21:58:38.298Z,16.93
2023-01-05T22:01:10.511Z,15.60
2023-01-05T22:03:39.671Z,16.27
2023-01-05T22:06:09.239Z,16.03
2023-01-05T22:08:39.291Z,14.57
2023-01-05T22:11:08.971Z,14.27
2023-01-05T22:13:39.184Z,14.13
2023-01-05T22:16:09.216Z,13.00
2023-01-05T22:18:37.971Z,13.03
2023-01-05T22:21:08.868Z,12.20
2023-01-05T22:23:39.772Z,12.20
2023-01-05T22:26:10.425Z,10.63
2023-01-05T22:28:40.922Z,9.83
2023-01-05T22:31:12.109Z,9.87
2023-01-05T22:33:43.563Z,9.33
2023-01-05T22:36:14.223Z,8.30
2023-01-05T22:38:46.208Z,8.40
2023-01-05T22:41:17.242Z,7.47
2023-01-05T22:43:47.262Z,7.10
2023-01-05T22:46:19.191Z,6.73
2023-01-05T22:48:49.868Z,8.53
2023-01-05T22:51:21.933Z,6.73
2023-01-05T22:53:52.621Z,5.83
2023-01-05T22:56:23.095Z,5.93
2023-01-05T22:58:52.002Z,6.90
2023-01-05T23:01:24.511Z,5.60
2023-01-05T23:03:54.443Z,5.47
2023-01-05T23:06:23.676Z,5.37
2023-01-05T23:08:54.810Z,5.30
2023-01-05T23:11:25.206Z,5.50
2023-01-05T23:13:54.617Z,4.53
2023-01-05T23:16:23.275Z,4.67
2023-01-05T23:18:51.982Z,4.00
2023-01-05T23:21:22.308Z,4.47
2023-01-05T23:23:55.183Z,4.67
2023-01-05T23:26:26.939Z,4.17
2023-01-05T23:28:56.019Z,4.50
2023-01-05T23:31:24.998Z,4.43
2023-01-05T23:33:54.134Z,4.27
2023-01-05T23:36:23.879Z,4.90
2023-01-05T23:38:53.920Z,4.60
2023-01-05T23:41:22.661Z,4.77
2023-01-05T23:43:51.626Z,3.93
2023-01-05T23:46:22.096Z,4.13
2023-01-05T23:48:51.877Z,3.53
2023-01-05T23:51:20.829Z,3.90
2023-01-05T23:53:51.313Z,4.17
2023-01-05T23:56:23.555Z,3.40
2023-01-05T23:58:58.482Z,3.67
